Time;durP1;ratioP1;P1;durP2;ratioP2;P2;SDS_P1;SDS_P2;PMS_P1;PMS_P2;Temp;Humidity;BMP_temperature;BMP_pressure;BME280_temperature;BME280_humidity;BME280_pressure;Samples;Min_cycle;Max_cycle;Signal;HPM_P1;HPM_P2
2023/05/05 03:57:53;;;;;;;9.27;5.20;;;;;;;13.17;72.71;100975.19;5601592;31;217794;-56
2023/05/05 04:00:56;;;;;;;9.30;4.82;;;;;;;13.17;72.71;100975.19;5583828;32;33326;-57
2023/05/05 04:03:59;;;;;;;11.77;5.00;;;;;;;12.70;73.90;100990.09;5583819;31;33246;-57
2023/05/05 04:07:01;;;;;;;10.55;5.80;;;;;;;12.75;73.52;100995.44;5583841;31;33602;-57
2023/05/05 04:10:05;;;;;;;16.35;7.30;;;;;;;12.70;78.38;101000.84;5572627;32;34281;-56
2023/05/05 04:13:08;;;;;;;7.00;5.20;;;;;;;12.63;75.21;100995.78;5564099;32;33582;-56
2023/05/05 04:16:10;;;;;;;9.52;4.90;;;;;;;12.77;78.90;100995.16;5564065;32;33103;-56
2023/05/05 04:19:13;;;;;;;7.47;4.97;;;;;;;12.61;77.30;100997.13;5562891;32;33609;-57
2023/05/05 04:22:15;;;;;;;9.82;5.03;;;;;;;12.85;73.59;100999.97;5563333;32;33582;-56
2023/05/05 04:25:17;;;;;;;9.55;5.00;;;;;;;12.93;72.74;100997.44;5563497;32;33570;-56
2023/05/05 04:28:21;;;;;;;8.70;5.12;;;;;;;13.10;72.45;100990.88;5563660;32;33791;-57
2023/05/05 04:31:23;;;;;;;7.87;4.68;;;;;;;13.02;77.40;100994.97;5563681;32;34380;-56
2023/05/05 04:34:26;;;;;;;8.88;5.32;;;;;;;13.15;73.12;100991.62;5563614;32;34392;-56
2023/05/05 04:37:28;;;;;;;10.63;5.70;;;;;;;13.19;74.32;100999.16;5563382;32;33712;-56
2023/05/05 04:40:32;;;;;;;9.27;5.10;;;;;;;13.35;72.93;101004.16;5563339;32;34184;-56
2023/05/05 04:43:34;;;;;;;9.05;5.30;;;;;;;13.40;71.00;101008.69;5563721;32;33572;-57
2023/05/05 04:46:37;;;;;;;9.15;5.80;;;;;;;13.49;80.92;101011.56;5563360;32;33478;-56
2023/05/05 04:49:39;;;;;;;10.50;5.20;;;;;;;13.33;74.44;101009.00;5563130;32;33730;-57
2023/05/05 04:52:42;;;;;;;13.15;5.87;;;;;;;13.27;73.79;101012.03;5563134;32;33558;-57
2023/05/05 04:55:44;;;;;;;14.40;5.70;;;;;;;13.37;72.90;101015.41;5581543;32;34055;-57
2023/05/05 04:58:46;;;;;;;12.20;6.05;;;;;;;13.51;73.23;101018.28;5582962;31;33738;-57
2023/05/05 05:01:49;;;;;;;14.70;6.10;;;;;;;13.58;71.79;101026.03;5582085;32;33688;-57
2023/05/05 05:04:51;;;;;;;8.50;5.30;;;;;;;13.69;70.76;101024.03;5583388;32;33613;-57
2023/05/05 05:07:54;;;;;;;9.30;5.87;;;;;;;13.67;73.38;101023.50;5575753;32;34886;-57
2023/05/05 05:10:58;;;;;;;9.23;5.70;;;;;;;13.79;78.85;101029.31;5567912;32;33919;-57
2023/05/05 05:14:00;;;;;;;16.37;5.82;;;;;;;13.83;70.72;101028.44;5570049;31;33410;-56
2023/05/05 05:17:04;;;;;;;10.30;6.40;;;;;;;13.89;70.12;101028.41;5569981;31;33293;-57
2023/05/05 05:20:07;;;;;;;13.27;5.95;;;;;;;14.12;68.85;101026.81;5569986;31;33515;-56
2023/05/05 05:23:10;;;;;;;9.20;5.70;;;;;;;14.17;69.34;101034.81;5569969;32;33584;-57
2023/05/05 05:26:15;;;;;;;11.30;5.95;;;;;;;14.15;72.26;101032.41;5569890;31;33368;-56
2023/05/05 05:29:19;;;;;;;11.07;6.40;;;;;;;14.33;75.05;101030.84;5557113;31;34386;-56
2023/05/05 05:32:21;;;;;;;10.27;6.28;;;;;;;14.53;70.79;101030.59;5550279;32;34437;-57
2023/05/05 05:35:24;;;;;;;10.05;6.30;;;;;;;14.76;69.54;101036.22;5548752;32;34111;-57
2023/05/05 05:38:27;;;;;;;8.07;5.15;;;;;;;14.99;77.47;101032.63;5549625;32;34497;-57
2023/05/05 05:41:30;;;;;;;10.02;5.15;;;;;;;15.21;68.21;101032.03;5550230;32;34569;-56
2023/05/05 05:44:32;;;;;;;9.90;5.47;;;;;;;15.47;65.78;101037.00;5550297;32;33202;-57
2023/05/05 05:47:35;;;;;;;9.68;4.57;;;;;;;15.63;60.99;101038.34;5549972;32;33318;-57
2023/05/05 05:50:37;;;;;;;6.70;4.32;;;;;;;15.72;58.55;101041.97;5549856;32;33675;-57
2023/05/05 05:53:40;;;;;;;11.80;4.80;;;;;;;15.80;65.98;101045.91;5549549;32;34384;-56
2023/05/05 05:56:43;;;;;;;12.32;4.40;;;;;;;15.98;52.62;101045.00;5549670;32;33416;-56
2023/05/05 05:59:46;;;;;;;7.15;4.28;;;;;;;15.92;52.59;101048.91;5566756;32;32034;-56
2023/05/05 06:02:50;;;;;;;7.57;4.30;;;;;;;16.07;56.07;101049.72;5569055;32;33434;-56
2023/05/05 06:05:54;;;;;;;6.25;4.12;;;;;;;16.16;59.21;101056.06;5561142;32;33213;-57
2023/05/05 06:08:56;;;;;;;14.93;4.72;;;;;;;16.39;57.60;101049.63;5549613;32;34546;-57
2023/05/05 06:11:58;;;;;;;7.95;4.00;;;;;;;16.44;55.61;101046.00;5556719;32;33311;-56
2023/05/05 06:15:01;;;;;;;17.23;5.20;;;;;;;16.55;57.63;101044.66;5557674;32;34362;-58
2023/05/05 06:18:04;;;;;;;7.10;4.43;;;;;;;16.72;54.44;101043.22;5555684;32;33565;-57
2023/05/05 06:21:06;;;;;;;8.77;4.55;;;;;;;16.70;64.58;101040.03;5557591;32;33667;-57
2023/05/05 06:24:08;;;;;;;8.63;4.87;;;;;;;16.79;54.19;101047.16;5549558;32;34510;-57
2023/05/05 06:27:11;;;;;;;7.25;4.90;;;;;;;16.95;57.07;101050.28;5566396;32;33630;-57
2023/05/05 06:30:13;;;;;;;15.82;5.78;;;;;;;16.98;55.15;101041.56;5568400;32;34416;-56
2023/05/05 06:33:16;;;;;;;9.88;4.80;;;;;;;17.05;51.32;101036.53;5568467;32;34447;-57
2023/05/05 06:36:18;;;;;;;9.52;4.70;;;;;;;16.90;52.80;101028.75;5568393;32;34396;-56
2023/05/05 06:39:20;;;;;;;8.70;5.30;;;;;;;17.03;56.30;101029.81;5566952;32;33717;-57
2023/05/05 06:42:23;;;;;;;8.20;5.78;;;;;;;17.06;54.58;101029.22;5565816;32;33569;-56
2023/05/05 06:45:26;;;;;;;20.27;5.72;;;;;;;17.27;53.14;101033.00;5567247;32;33377;-56
2023/05/05 06:48:29;;;;;;;9.75;5.10;;;;;;;17.17;49.43;101033.25;5568100;32;33526;-57
2023/05/05 06:51:31;;;;;;;13.07;4.87;;;;;;;17.24;50.78;101033.63;5560594;32;34298;-57
2023/05/05 06:54:33;;;;;;;8.70;5.07;;;;;;;17.24;51.99;101028.19;5568214;32;34402;-57
2023/05/05 06:57:36;;;;;;;9.77;4.97;;;;;;;17.26;52.70;101034.13;5568284;32;34177;-57
2023/05/05 07:00:39;;;;;;;8.23;4.82;;;;;;;17.37;53.03;101032.75;5567767;32;33811;-58
2023/05/05 07:03:42;;;;;;;13.35;5.10;;;;;;;17.57;57.03;101036.84;5566841;32;34776;-57
2023/05/05 07:06:45;;;;;;;9.23;4.50;;;;;;;17.69;54.25;101025.44;5568089;32;34339;-57
2023/05/05 07:09:47;;;;;;;7.55;4.50;;;;;;;17.76;52.94;101027.69;5568460;32;33561;-57
2023/05/05 07:12:50;;;;;;;9.10;4.65;;;;;;;17.69;51.82;101035.47;5563935;32;33982;-58
2023/05/05 07:15:54;;;;;;;9.35;4.55;;;;;;;17.62;49.46;101034.00;5558313;32;33165;-57
2023/05/05 07:18:57;;;;;;;6.62;4.10;;;;;;;17.82;53.90;101027.28;5557258;32;34314;-57
2023/05/05 07:21:59;;;;;;;6.90;4.45;;;;;;;17.74;50.40;101036.13;5565049;32;34154;-57
2023/05/05 07:25:02;;;;;;;7.68;4.68;;;;;;;17.78;52.92;101020.88;5568493;32;33705;-58
2023/05/05 07:28:05;;;;;;;7.28;4.28;;;;;;;17.89;49.99;101026.03;5568572;32;33602;-57
2023/05/05 07:31:07;;;;;;;8.88;4.32;;;;;;;17.88;52.66;101025.22;5568191;32;34406;-57
2023/05/05 07:34:09;;;;;;;10.90;5.05;;;;;;;17.78;52.01;101031.72;5567527;32;33945;-56
2023/05/05 07:37:12;;;;;;;9.18;4.80;;;;;;;17.73;51.62;101029.13;5568015;32;33696;-57
2023/05/05 07:40:14;;;;;;;8.00;4.30;;;;;;;17.94;64.61;101031.28;5568464;32;33690;-57
2023/05/05 07:43:17;;;;;;;7.68;4.85;;;;;;;18.10;66.99;101037.91;5568266;32;34244;-57
2023/05/05 07:46:19;;;;;;;7.53;4.78;;;;;;;18.11;51.37;101023.19;5567062;32;33682;-57
2023/05/05 07:49:21;;;;;;;9.90;4.53;;;;;;;17.94;54.41;101031.28;5567252;32;33773;-56
2023/05/05 07:52:24;;;;;;;9.60;4.82;;;;;;;18.02;58.33;101025.91;5567984;32;34234;-58
2023/05/05 07:55:46;;;;;;;9.50;5.03;;;;;;;18.20;52.13;101034.88;5567288;32;33497;-58
2023/05/05 07:58:48;;;;;;;9.77;4.60;;;;;;;18.03;50.94;101026.69;5548772;32;33739;-57
2023/05/05 08:01:50;;;;;;;8.95;4.43;;;;;;;17.97;50.58;101028.75;5560409;32;34509;-57
2023/05/05 08:04:56;;;;;;;13.27;5.28;;;;;;;18.14;56.32;101032.63;5562578;32;33799;-57
2023/05/05 08:07:58;;;;;;;7.72;4.85;;;;;;;18.29;52.78;101030.28;5568082;32;33671;-56
2023/05/05 08:11:01;;;;;;;12.23;5.22;;;;;;;18.24;52.23;101029.63;5568036;31;33585;-57
2023/05/05 08:14:04;;;;;;;7.80;4.80;;;;;;;18.46;54.42;101034.16;5567696;32;33599;-57
2023/05/05 08:17:06;;;;;;;11.73;5.70;;;;;;;18.58;55.12;101026.19;5565693;32;33635;-57
2023/05/05 08:20:09;;;;;;;9.95;5.10;;;;;;;18.62;51.54;101029.06;5567609;32;34220;-56
2023/05/05 08:23:13;;;;;;;8.27;4.75;;;;;;;18.40;50.93;101017.19;5567509;32;33601;-57
2023/05/05 08:26:15;;;;;;;11.73;5.75;;;;;;;18.41;57.30;101018.81;5567668;32;33745;-57
2023/05/05 08:29:18;;;;;;;8.90;6.22;;;;;;;18.52;55.09;101022.03;5567606;32;33256;-56
2023/05/05 08:32:20;;;;;;;10.65;6.55;;;;;;;18.52;53.15;101013.88;5567081;32;34215;-57
2023/05/05 08:35:22;;;;;;;9.25;5.97;;;;;;;18.45;50.92;101019.00;5566295;32;33650;-57
2023/05/05 08:38:25;;;;;;;8.30;5.22;;;;;;;18.48;51.95;101023.78;5562271;32;34305;-56
2023/05/05 08:41:29;;;;;;;10.95;5.85;;;;;;;18.48;50.89;101015.63;5553255;32;33662;-56
2023/05/05 08:44:32;;;;;;;8.07;5.55;;;;;;;18.49;53.27;101014.50;5554212;32;33276;-57
2023/05/05 08:47:35;;;;;;;9.98;6.10;;;;;;;18.63;53.69;101026.00;5560099;32;33784;-56
2023/05/05 08:50:38;;;;;;;11.02;5.75;;;;;;;18.69;51.06;101013.88;5552834;32;33669;-57
2023/05/05 08:53:53;;;;;;;11.65;5.70;;;;;;;18.73;53.70;101024.94;5555552;32;33581;-56
2023/05/05 08:57:00;;;;;;;14.80;6.40;;;;;;;18.91;57.07;101018.41;5569222;32;34320;-57
2023/05/05 09:00:03;;;;;;;8.90;5.75;;;;;;;19.04;60.79;101016.63;5562494;32;34269;-57
2023/05/05 09:03:06;;;;;;;8.23;6.47;;;;;;;19.11;53.65;101013.41;5568976;32;33215;-56
2023/05/05 09:06:12;;;;;;;9.43;6.78;;;;;;;19.10;53.40;101009.87;5568245;32;33606;-56
2023/05/05 09:09:16;;;;;;;10.02;7.05;;;;;;;18.87;49.71;101003.03;5559252;31;34123;-57
2023/05/05 09:12:20;;;;;;;9.85;6.37;;;;;;;18.76;51.49;101002.56;5568231;32;33295;-57
2023/05/05 09:15:22;;;;;;;8.55;6.32;;;;;;;18.63;51.15;101007.00;5569633;32;34262;-57
2023/05/05 09:18:25;;;;;;;12.32;7.10;;;;;;;18.65;52.93;101012.94;5559399;32;34327;-56
2023/05/05 09:21:28;;;;;;;8.02;5.25;;;;;;;18.73;52.56;101003.22;5550396;32;33624;-61
2023/05/05 09:24:30;;;;;;;11.02;5.97;;;;;;;18.83;61.26;100999.37;5564002;32;33705;-57
2023/05/05 09:27:37;;;;;;;10.68;6.30;;;;;;;18.99;62.78;100992.31;5568328;32;34705;-57
2023/05/05 09:30:42;;;;;;;8.63;6.43;;;;;;;19.05;54.18;100995.69;5564851;32;33796;-57
2023/05/05 09:33:45;;;;;;;10.02;6.72;;;;;;;19.23;50.71;100981.72;5568134;32;34058;-57
2023/05/05 09:36:47;;;;;;;13.30;6.43;;;;;;;19.21;52.00;100975.81;5569915;32;34430;-57
2023/05/05 09:39:54;;;;;;;10.40;7.07;;;;;;;19.26;51.75;100972.13;5569072;32;33556;-56
2023/05/05 09:43:01;;;;;;;9.45;6.10;;;;;;;19.30;50.92;100967.62;5567628;32;33668;-57
2023/05/05 09:46:06;;;;;;;36.78;8.23;;;;;;;19.30;50.87;100964.12;5558761;32;34430;-57
2023/05/05 09:49:18;;;;;;;6.43;4.72;;;;;;;19.17;50.23;100960.47;5569007;32;33750;-57
2023/05/05 09:52:21;;;;;;;7.60;5.75;;;;;;;19.33;55.50;100971.63;5569523;32;33657;-57
2023/05/05 09:55:24;;;;;;;9.05;5.45;;;;;;;19.33;50.72;100966.19;5566112;32;34509;-57
2023/05/05 09:58:28;;;;;;;10.30;6.07;;;;;;;19.36;50.92;100969.06;5561380;32;34082;-57
2023/05/05 10:01:30;;;;;;;10.25;6.10;;;;;;;19.54;51.83;100958.94;5553805;32;34123;-58
2023/05/05 10:04:33;;;;;;;8.52;5.80;;;;;;;19.65;53.00;100957.47;5550090;32;33256;-57
2023/05/05 10:07:36;;;;;;;7.97;5.37;;;;;;;19.58;48.15;100957.16;5567794;32;33775;-57
2023/05/05 10:10:50;;;;;;;10.25;5.07;;;;;;;19.40;48.28;100955.59;5555651;32;33747;-57
2023/05/05 10:13:52;;;;;;;8.27;5.05;;;;;;;19.44;51.26;100943.78;5549726;32;33818;-57
2023/05/05 10:16:55;;;;;;;8.88;6.03;;;;;;;19.47;49.46;100940.41;5566206;32;34380;-57
2023/05/05 10:20:00;;;;;;;6.22;5.10;;;;;;;19.68;50.83;100935.03;5568900;32;33655;-57
2023/05/05 10:23:05;;;;;;;7.87;6.10;;;;;;;19.72;50.26;100940.62;5554265;32;34369;-57
2023/05/05 10:26:12;;;;;;;14.68;6.40;;;;;;;19.82;46.91;100940.25;5553841;32;33646;-57
2023/05/05 10:29:24;;;;;;;7.45;5.87;;;;;;;19.77;47.74;100942.34;5550056;32;33691;-56
2023/05/05 10:32:37;;;;;;;11.32;5.97;;;;;;;19.83;47.36;100938.31;5558376;32;33751;-58
2023/05/05 10:35:43;;;;;;;8.02;5.60;;;;;;;19.92;48.29;100945.31;5550614;32;34314;-57
2023/05/05 10:38:46;;;;;;;7.80;5.82;;;;;;;19.99;45.81;100924.94;5548109;32;33722;-57
2023/05/05 10:41:50;;;;;;;12.30;4.90;;;;;;;19.95;48.40;100931.03;5565344;32;34956;-56
2023/05/05 10:44:52;;;;;;;6.82;4.65;;;;;;;20.01;44.25;100918.06;5559450;32;33826;-57
2023/05/05 10:47:59;;;;;;;8.27;5.85;;;;;;;20.17;46.26;100915.53;5554215;32;33314;-57
2023/05/05 10:51:28;;;;;;;5.90;4.65;;;;;;;20.07;45.19;100914.00;5569237;32;33743;-56
2023/05/05 10:54:53;;;;;;;7.25;4.70;;;;;;;20.05;47.97;100910.81;5569269;32;34310;-57
2023/05/05 10:57:55;;;;;;;7.72;4.62;;;;;;;20.07;46.31;100902.34;5568293;32;33665;-57
2023/05/05 11:00:58;;;;;;;8.80;5.62;;;;;;;20.11;43.84;100897.81;5566904;32;33528;-57
2023/05/05 11:04:22;;;;;;;9.45;6.85;;;;;;;20.32;46.11;100895.06;5568885;32;33774;-57
2023/05/05 11:07:26;;;;;;;8.73;5.82;;;;;;;20.22;42.72;100895.47;5566470;32;33623;-57
2023/05/05 11:10:42;;;;;;;5.85;4.65;;;;;;;20.17;44.67;100889.13;5568128;32;33732;-57
2023/05/05 11:13:45;;;;;;;10.30;5.90;;;;;;;20.28;55.03;100888.72;5565146;32;33718;-57
2023/05/05 11:16:49;;;;;;;7.07;5.03;;;;;;;20.25;43.61;100882.00;5562567;32;33767;-57
2023/05/05 11:19:52;;;;;;;6.35;4.93;;;;;;;20.31;44.89;100886.12;5567876;32;33644;-57
2023/05/05 11:23:03;;;;;;;6.28;4.25;;;;;;;20.35;44.26;100886.25;5560445;32;33721;-57
2023/05/05 11:26:08;;;;;;;7.80;4.72;;;;;;;20.31;46.77;100880.66;5562675;32;34323;-57
2023/05/05 11:29:15;;;;;;;10.75;5.10;;;;;;;20.40;47.91;100875.16;5567006;32;33624;-57
2023/05/05 11:32:23;;;;;;;7.00;5.20;;;;;;;20.43;43.02;100869.03;5561973;32;33790;-57
2023/05/05 11:36:01;;;;;;;10.45;5.15;;;;;;;20.45;43.43;100871.41;5559168;32;33256;-57
2023/05/05 11:39:20;;;;;;;8.90;5.80;;;;;;;20.39;42.53;100854.47;5565574;32;32547;-57
2023/05/05 11:42:24;;;;;;;10.35;5.65;;;;;;;20.41;43.41;100855.75;5568074;32;33592;-57
2023/05/05 11:45:27;;;;;;;7.60;5.40;;;;;;;20.61;44.56;100862.31;5566140;32;33614;-58
2023/05/05 11:48:29;;;;;;;6.85;4.93;;;;;;;20.53;42.29;100849.59;5552724;32;33698;-57
2023/05/05 11:51:32;;;;;;;9.98;5.95;;;;;;;20.59;46.68;100850.94;5561242;32;34430;-57
2023/05/05 11:54:36;;;;;;;6.50;5.12;;;;;;;20.56;41.94;100843.47;5566610;32;33748;-57
2023/05/05 11:57:39;;;;;;;9.98;5.25;;;;;;;20.53;43.11;100838.69;5568074;32;34305;-57
2023/05/05 12:00:41;;;;;;;7.60;4.60;;;;;;;20.53;41.97;100832.44;5567202;32;33603;-57
2023/05/05 12:03:44;;;;;;;6.25;5.15;;;;;;;20.61;45.30;100842.44;5568167;32;33436;-57
2023/05/05 12:06:48;;;;;;;7.00;4.97;;;;;;;20.69;40.66;100832.59;5566602;32;34344;-57
2023/05/05 12:09:51;;;;;;;5.75;3.78;;;;;;;20.73;42.83;100838.94;5567969;32;34000;-57
2023/05/05 12:12:53;;;;;;;5.50;4.00;;;;;;;20.83;40.01;100830.37;5567540;32;33603;-57
2023/05/05 12:16:18;;;;;;;7.97;4.25;;;;;;;20.76;40.99;100825.47;5567506;32;34322;-57
2023/05/05 12:19:21;;;;;;;4.45;3.40;;;;;;;20.85;38.29;100826.16;5569945;32;33670;-56
2023/05/05 12:22:25;;;;;;;6.10;4.00;;;;;;;20.90;40.12;100818.91;5568986;32;33555;-57
2023/05/05 12:25:35;;;;;;;4.50;3.90;;;;;;;20.96;39.72;100820.25;5566450;32;33844;-57
2023/05/05 12:28:47;;;;;;;8.07;3.83;;;;;;;20.98;39.17;100818.00;5570407;32;34303;-57
2023/05/05 12:31:49;;;;;;;10.65;3.87;;;;;;;21.06;39.82;100819.81;5566308;32;33746;-57
2023/05/05 12:34:58;;;;;;;6.60;3.60;;;;;;;21.01;37.95;100818.09;5560559;32;33875;-57
2023/05/05 12:38:00;;;;;;;4.78;3.60;;;;;;;21.14;38.79;100808.00;5558899;32;34227;-57
2023/05/05 12:41:03;;;;;;;5.75;3.70;;;;;;;21.14;40.72;100815.41;5551739;32;33592;-57
2023/05/05 12:44:05;;;;;;;5.50;3.83;;;;;;;21.12;39.77;100808.34;5567326;32;33732;-57
2023/05/05 12:47:08;;;;;;;5.00;3.58;;;;;;;21.16;37.83;100804.94;5569407;32;33590;-57
2023/05/05 12:50:10;;;;;;;7.78;4.50;;;;;;;21.06;37.46;100807.00;5559782;32;33713;-57
2023/05/05 12:53:23;;;;;;;7.28;4.57;;;;;;;21.04;37.10;100798.34;5557947;32;33618;-57
2023/05/05 12:56:33;;;;;;;7.12;4.07;;;;;;;21.00;38.14;100791.22;5556525;32;33821;-57
2023/05/05 12:59:36;;;;;;;5.75;4.15;;;;;;;21.04;38.19;100795.63;5554293;32;33570;-57
2023/05/05 13:02:38;;;;;;;6.43;3.90;;;;;;;21.15;38.33;100784.25;5566262;32;33444;-58
2023/05/05 13:05:40;;;;;;;6.05;3.95;;;;;;;21.24;40.30;100784.94;5569809;32;33703;-57
2023/05/05 13:08:42;;;;;;;6.65;4.37;;;;;;;21.30;38.34;100778.91;5569931;32;33784;-57
2023/05/05 13:11:45;;;;;;;11.30;3.97;;;;;;;21.23;37.62;100783.38;5569833;32;33566;-57
2023/05/05 13:14:47;;;;;;;6.40;3.78;;;;;;;21.21;37.95;100774.72;5569340;32;34247;-58
2023/05/05 13:17:49;;;;;;;5.90;3.62;;;;;;;21.22;40.58;100770.84;5569426;32;33640;-57
2023/05/05 13:20:52;;;;;;;7.25;4.72;;;;;;;21.19;38.35;100763.34;5569701;32;34266;-58
2023/05/05 13:23:54;;;;;;;9.55;4.25;;;;;;;21.33;41.54;100758.34;5565992;32;33336;-57
2023/05/05 13:27:13;;;;;;;10.20;4.25;;;;;;;21.35;39.56;100758.81;5551106;32;34388;-57
2023/05/05 13:30:15;;;;;;;6.07;4.65;;;;;;;21.38;38.96;100747.22;5568653;32;34253;-57
2023/05/05 13:33:17;;;;;;;12.50;5.07;;;;;;;21.34;41.21;100757.19;5569781;32;33617;-58
2023/05/05 13:36:20;;;;;;;8.13;4.93;;;;;;;21.39;41.53;100743.38;5569723;32;34427;-57
2023/05/05 13:39:22;;;;;;;15.70;5.10;;;;;;;21.50;41.01;100740.97;5568776;32;33707;-57
2023/05/05 13:42:25;;;;;;;9.85;4.72;;;;;;;21.56;44.19;100737.63;5560317;32;33586;-57
2023/05/05 13:45:27;;;;;;;8.45;4.85;;;;;;;21.52;39.71;100733.19;5569327;32;34396;-57
2023/05/05 13:48:30;;;;;;;13.93;5.75;;;;;;;21.50;41.57;100730.84;5569390;32;33917;-57
2023/05/05 13:51:33;;;;;;;16.83;5.70;;;;;;;21.55;44.57;100732.50;5567408;32;33875;-57
2023/05/05 13:54:36;;;;;;;17.80;5.43;;;;;;;21.57;42.53;100727.53;5558278;32;33589;-57
2023/05/05 13:57:38;;;;;;;9.40;5.22;;;;;;;21.54;43.87;100725.47;5559359;32;32972;-57
2023/05/05 14:00:41;;;;;;;12.93;4.95;;;;;;;21.52;42.16;100719.56;5567366;32;34565;-57
2023/05/05 14:03:43;;;;;;;6.20;4.53;;;;;;;21.47;39.16;100717.88;5558498;32;34100;-57
2023/05/05 14:06:45;;;;;;;6.57;3.67;;;;;;;21.42;41.86;100717.31;5564250;32;33610;-57
2023/05/05 14:09:48;;;;;;;10.20;4.10;;;;;;;21.36;40.86;100716.78;5566087;32;33712;-57
2023/05/05 14:12:51;;;;;;;9.75;4.03;;;;;;;21.41;40.31;100718.47;5552315;32;33974;-57
2023/05/05 14:15:53;;;;;;;6.18;4.03;;;;;;;21.37;38.71;100714.84;5548061;32;33480;-57
2023/05/05 14:18:55;;;;;;;9.30;4.80;;;;;;;21.37;39.88;100717.59;5548063;32;34498;-57
2023/05/05 14:21:58;;;;;;;9.50;4.18;;;;;;;21.42;39.33;100722.78;5562471;32;33641;-57
2023/05/05 14:25:00;;;;;;;10.73;4.60;;;;;;;21.47;40.24;100720.62;5568861;32;33670;-57
2023/05/05 14:28:02;;;;;;;9.40;4.93;;;;;;;21.49;39.33;100710.16;5564973;32;33708;-58
2023/05/05 14:31:04;;;;;;;6.30;4.62;;;;;;;21.50;39.56;100711.75;5546719;32;33423;-57
2023/05/05 14:34:07;;;;;;;11.90;4.68;;;;;;;21.69;39.43;100707.56;5549724;32;33695;-57
2023/05/05 14:37:09;;;;;;;12.68;4.95;;;;;;;21.68;39.48;100706.00;5549660;32;34414;-57
2023/05/05 14:40:12;;;;;;;6.40;4.75;;;;;;;21.58;40.19;100705.34;5562588;32;33759;-58
2023/05/05 14:43:14;;;;;;;7.37;4.90;;;;;;;21.62;38.39;100701.91;5567370;32;34505;-57
2023/05/05 14:46:17;;;;;;;7.53;4.60;;;;;;;21.56;38.70;100698.66;5567683;32;34421;-57
2023/05/05 14:49:19;;;;;;;7.10;4.82;;;;;;;21.50;38.99;100698.09;5548249;32;33682;-57
2023/05/05 14:52:22;;;;;;;6.28;4.50;;;;;;;21.39;37.99;100704.38;5554328;32;33232;-57
2023/05/05 14:55:24;;;;;;;9.38;5.10;;;;;;;21.37;39.16;100701.22;5566719;32;34334;-57
2023/05/05 14:58:27;;;;;;;9.23;4.57;;;;;;;21.38;38.73;100695.41;5563558;32;33732;-57
2023/05/05 15:01:29;;;;;;;7.12;4.25;;;;;;;21.44;40.45;100694.03;5549052;32;33679;-57
2023/05/05 15:04:32;;;;;;;6.47;4.60;;;;;;;21.52;40.63;100700.47;5549537;32;33631;-58
2023/05/05 15:07:34;;;;;;;6.60;4.32;;;;;;;21.58;40.75;100691.69;5568170;32;34342;-57
2023/05/05 15:10:36;;;;;;;9.55;4.15;;;;;;;21.54;40.23;100690.03;5568765;32;33661;-57
2023/05/05 15:13:40;;;;;;;6.85;4.70;;;;;;;21.54;39.97;100690.81;5569029;32;34449;-57
2023/05/05 15:16:42;;;;;;;7.32;4.55;;;;;;;21.52;39.59;100693.09;5568343;32;34332;-58
2023/05/05 15:19:44;;;;;;;6.80;4.80;;;;;;;21.53;39.25;100702.88;5566682;32;33634;-57
